createdAt,value
2023-01-21T00:01:05.061Z,78.06
2023-01-21T00:03:31.974Z,78.20
2023-01-21T00:05:58.909Z,78.31
2023-01-21T00:08:26.629Z,78.41
2023-01-21T00:10:53.961Z,78.23
2023-01-21T00:13:20.990Z,78.58
2023-01-21T00:15:47.898Z,78.65
2023-01-21T00:18:14.696Z,78.87
2023-01-21T00:20:41.647Z,78.98
2023-01-21T00:23:10.798Z,79.00
2023-01-21T00:25:37.733Z,78.88
2023-01-21T00:28:04.627Z,78.82
2023-01-21T00:30:31.507Z,78.98
2023-01-21T00:32:58.426Z,78.94
2023-01-21T00:35:25.193Z,79.33
2023-01-21T00:37:52.470Z,79.23
2023-01-21T00:40:19.467Z,79.19
2023-01-21T00:42:46.296Z,79.37
2023-01-21T00:45:13.100Z,79.45
2023-01-21T00:47:40.147Z,79.48
2023-01-21T00:50:08.838Z,79.57
2023-01-21T00:52:36.184Z,79.72
2023-01-21T00:55:03.229Z,79.77
2023-01-21T00:57:30.389Z,79.81
2023-01-21T00:59:57.661Z,79.72
2023-01-21T01:02:24.524Z,79.82
2023-01-21T01:04:51.384Z,79.66
2023-01-21T01:07:18.189Z,79.81
2023-01-21T01:09:44.960Z,79.69
2023-01-21T01:12:11.710Z,79.67
2023-01-21T01:14:38.487Z,79.79
2023-01-21T01:17:05.328Z,79.80
2023-01-21T01:19:32.180Z,79.88
2023-01-21T01:21:58.961Z,79.95
2023-01-21T01:24:25.855Z,79.79
2023-01-21T01:26:52.708Z,79.68
2023-01-21T01:29:19.523Z,79.50
2023-01-21T01:31:46.436Z,79.46
2023-01-21T01:34:13.309Z,79.53
2023-01-21T01:36:40.175Z,79.20
2023-01-21T01:39:07.832Z,79.13
2023-01-21T01:41:35.490Z,79.27
2023-01-21T01:44:06.478Z,79.17
2023-01-21T01:46:35.239Z,79.12
2023-01-21T01:49:09.709Z,79.25
2023-01-21T01:51:58.161Z,79.37
2023-01-21T01:54:28.532Z,79.46
2023-01-21T01:56:56.468Z,79.54
2023-01-21T01:59:23.310Z,79.45
2023-01-21T02:01:50.137Z,79.61
2023-01-21T02:04:20.167Z,79.63
2023-01-21T02:06:47.395Z,79.53
2023-01-21T02:09:14.142Z,79.72
2023-01-21T02:11:40.935Z,79.71
2023-01-21T02:14:07.722Z,79.51
2023-01-21T02:16:47.468Z,79.57
2023-01-21T02:19:39.742Z,79.45
2023-01-21T02:22:21.845Z,79.21
2023-01-21T02:25:26.685Z,79.26
2023-01-21T02:28:08.885Z,79.11
2023-01-21T02:30:57.616Z,79.06
2023-01-21T02:33:45.581Z,78.99
2023-01-21T02:36:27.191Z,78.84
2023-01-21T02:39:10.043Z,79.05
2023-01-21T02:41:58.265Z,79.17
2023-01-21T02:44:27.834Z,78.99
2023-01-21T02:47:24.236Z,78.93
2023-01-21T02:49:57.119Z,79.05
2023-01-21T02:52:24.724Z,78.74
2023-01-21T02:54:59.313Z,78.82
2023-01-21T02:58:00.381Z,78.95
2023-01-21T03:00:30.312Z,78.89
2023-01-21T03:03:21.307Z,79.02
2023-01-21T03:06:13.177Z,79.13
2023-01-21T03:08:49.398Z,79.21
2023-01-21T03:11:17.177Z,78.92
2023-01-21T03:14:08.477Z,79.43
2023-01-21T03:16:58.608Z,79.50
2023-01-21T03:19:31.313Z,79.28
2023-01-21T03:21:58.979Z,79.22
2023-01-21T03:24:25.845Z,79.04
2023-01-21T03:26:52.689Z,79.14
2023-01-21T03:29:22.266Z,79.27
2023-01-21T03:31:51.506Z,79.18
2023-01-21T03:34:18.287Z,79.14
2023-01-21T03:36:49.021Z,79.28
2023-01-21T03:39:21.277Z,79.35
2023-01-21T03:41:48.154Z,79.10
2023-01-21T03:44:14.884Z,78.95
2023-01-21T03:46:46.222Z,79.24
2023-01-21T03:49:19.682Z,79.36
2023-01-21T03:51:54.983Z,79.46
2023-01-21T03:54:22.152Z,79.44
2023-01-21T03:56:48.913Z,79.42
2023-01-21T03:59:15.739Z,79.61
2023-01-21T04:01:42.486Z,79.44
2023-01-21T04:04:09.646Z,79.59
2023-01-21T04:06:37.310Z,79.57
2023-01-21T04:09:05.040Z,79.75
2023-01-21T04:11:31.897Z,79.62
2023-01-21T04:13:58.661Z,79.72
2023-01-21T04:16:25.541Z,79.59
2023-01-21T04:18:52.423Z,79.16
2023-01-21T04:21:19.266Z,79.31
2023-01-21T04:23:45.987Z,79.32
2023-01-21T04:26:12.792Z,79.75
2023-01-21T04:28:39.521Z,79.93
2023-01-21T04:31:06.317Z,79.94
2023-01-21T04:33:33.153Z,80.11
2023-01-21T04:36:00.529Z,79.98
2023-01-21T04:38:27.600Z,80.11
2023-01-21T04:40:54.398Z,80.02
2023-01-21T04:43:21.361Z,79.89
2023-01-21T04:45:48.328Z,79.52
2023-01-21T04:48:15.153Z,79.48
2023-01-21T04:50:41.915Z,79.23
2023-01-21T04:53:08.660Z,79.41
2023-01-21T04:55:35.471Z,79.16
2023-01-21T04:58:02.199Z,79.26
2023-01-21T05:00:29.014Z,78.95
2023-01-21T05:02:55.775Z,79.00
2023-01-21T05:05:22.610Z,78.83
2023-01-21T05:07:53.066Z,78.89
2023-01-21T05:10:19.970Z,78.91
2023-01-21T05:12:46.792Z,79.03
2023-01-21T05:15:13.698Z,78.77
2023-01-21T05:17:40.564Z,78.75
2023-01-21T05:20:07.879Z,78.70
2023-01-21T05:22:34.646Z,78.50
2023-01-21T05:25:01.677Z,78.81
2023-01-21T05:27:28.416Z,78.42
2023-01-21T05:29:57.116Z,78.19
2023-01-21T05:32:24.038Z,78.21
2023-01-21T05:34:50.893Z,78.22
2023-01-21T05:37:17.654Z,78.53
2023-01-21T05:39:44.761Z,78.32
2023-01-21T05:42:12.454Z,78.37
2023-01-21T05:44:39.273Z,78.36
2023-01-21T05:47:07.614Z,78.47
2023-01-21T05:49:35.052Z,78.26
2023-01-21T05:52:01.966Z,78.60
2023-01-21T05:54:28.732Z,78.16
2023-01-21T05:56:55.599Z,77.99
2023-01-21T05:59:22.488Z,78.48
2023-01-21T06:01:49.332Z,78.17
2023-01-21T06:04:16.113Z,78.27
2023-01-21T06:06:42.911Z,78.18
2023-01-21T06:09:09.817Z,78.66
2023-01-21T06:11:36.545Z,78.37
2023-01-21T06:14:03.372Z,78.46
2023-01-21T06:16:30.148Z,78.58
2023-01-21T06:18:56.893Z,78.37
2023-01-21T06:21:23.763Z,78.20
2023-01-21T06:23:50.564Z,78.22
2023-01-21T06:26:17.280Z,78.34
2023-01-21T06:28:44.088Z,78.18
2023-01-21T06:31:11.085Z,78.17
2023-01-21T06:33:37.913Z,78.25
2023-01-21T06:36:05.001Z,78.02
2023-01-21T06:38:36.089Z,77.64
2023-01-21T06:41:03.395Z,77.48
2023-01-21T06:43:30.305Z,77.20
2023-01-21T06:45:57.078Z,77.38
2023-01-21T06:48:23.898Z,77.58
2023-01-21T06:50:50.751Z,77.69
2023-01-21T06:53:17.677Z,77.80
2023-01-21T06:55:44.579Z,77.58
2023-01-21T06:58:11.573Z,77.59
2023-01-21T07:00:38.353Z,77.75
2023-01-21T07:03:05.230Z,77.73
2023-01-21T07:05:32.050Z,77.70
2023-01-21T07:07:59.692Z,77.71
2023-01-21T07:10:26.734Z,77.47
2023-01-21T07:12:53.604Z,77.28
2023-01-21T07:15:20.379Z,77.27
2023-01-21T07:17:47.170Z,77.20
2023-01-21T07:20:14.036Z,77.14
2023-01-21T07:22:40.839Z,77.18
2023-01-21T07:25:08.222Z,77.17
2023-01-21T07:27:35.087Z,77.45
2023-01-21T07:30:01.880Z,77.21
2023-01-21T07:32:28.753Z,77.37
2023-01-21T07:34:55.485Z,77.39
2023-01-21T07:37:22.331Z,77.16
2023-01-21T07:39:49.088Z,76.95
2023-01-21T07:42:15.913Z,76.55
2023-01-21T07:44:42.834Z,76.34
2023-01-21T07:47:10.651Z,76.28
2023-01-21T07:49:37.708Z,76.43
2023-01-21T07:52:04.614Z,76.16
2023-01-21T07:54:31.452Z,76.06
2023-01-21T07:56:58.590Z,75.95
2023-01-21T07:59:25.389Z,76.08
2023-01-21T08:01:52.530Z,75.95
2023-01-21T08:04:19.518Z,75.94
2023-01-21T08:06:46.292Z,76.10
2023-01-21T08:09:13.086Z,76.25
2023-01-21T08:11:39.957Z,76.28
2023-01-21T08:14:06.764Z,76.40
2023-01-21T08:16:33.682Z,76.55
2023-01-21T08:19:00.530Z,76.48
2023-01-21T08:21:27.471Z,76.62
2023-01-21T08:23:54.246Z,76.28
2023-01-21T08:26:20.996Z,76.58
2023-01-21T08:28:47.969Z,76.58
2023-01-21T08:31:14.839Z,76.66
2023-01-21T08:33:42.374Z,76.80
2023-01-21T08:36:09.611Z,76.76
2023-01-21T08:38:36.764Z,76.77
2023-01-21T08:41:04.560Z,76.80
2023-01-21T08:43:31.385Z,76.88
2023-01-21T08:45:59.417Z,76.83
2023-01-21T08:48:26.312Z,76.78
2023-01-21T08:50:53.106Z,76.68
2023-01-21T08:53:20.004Z,76.48
2023-01-21T08:55:46.796Z,76.55
2023-01-21T08:58:13.539Z,76.46
2023-01-21T09:00:41.986Z,76.09
2023-01-21T09:03:08.829Z,76.12
2023-01-21T09:05:35.729Z,76.12
2023-01-21T09:08:02.567Z,76.24
2023-01-21T09:10:48.255Z,76.13
2023-01-21T09:13:16.504Z,76.01
2023-01-21T09:15:43.594Z,76.08
2023-01-21T09:18:10.733Z,75.93
2023-01-21T09:20:38.059Z,75.93
2023-01-21T09:23:24.364Z,75.77
2023-01-21T09:26:01.477Z,75.94
2023-01-21T09:28:28.237Z,75.63
2023-01-21T09:31:02.971Z,75.60
2023-01-21T09:33:30.595Z,75.71
2023-01-21T09:35:58.649Z,75.69
2023-01-21T09:38:26.033Z,75.94
2023-01-21T09:40:53.025Z,76.29
2023-01-21T09:43:34.334Z,76.42
2023-01-21T09:46:04.145Z,76.37
2023-01-21T09:48:34.217Z,76.43
2023-01-21T09:51:03.348Z,76.55
2023-01-21T09:53:38.151Z,76.79
2023-01-21T09:56:05.085Z,77.11
2023-01-21T09:58:38.821Z,77.02
2023-01-21T10:01:09.415Z,77.35
2023-01-21T10:03:56.722Z,77.30
2023-01-21T12:22:24.626Z,87.72
2023-01-21T12:24:54.377Z,87.33
2023-01-21T12:27:36.560Z,86.86
2023-01-21T12:30:22.412Z,86.88
2023-01-21T12:32:51.516Z,87.07
2023-01-21T12:35:29.635Z,86.70
2023-01-21T12:38:00.719Z,87.01
2023-01-21T12:40:31.354Z,87.02
2023-01-21T12:43:06.009Z,87.11
2023-01-21T12:45:46.367Z,87.30
2023-01-21T12:48:42.627Z,87.35
2023-01-21T12:51:11.604Z,87.35
2023-01-21T12:53:46.531Z,87.48
2023-01-21T12:56:24.949Z,87.50
2023-01-21T12:58:58.051Z,87.28
2023-01-21T13:01:55.016Z,87.09
2023-01-21T13:04:31.754Z,87.27
2023-01-21T13:07:06.156Z,87.57
2023-01-21T13:09:46.556Z,88.03
2023-01-21T13:12:24.521Z,87.97
2023-01-21T13:15:02.760Z,88.21
2023-01-21T13:17:32.215Z,88.50
2023-01-21T13:19:59.476Z,88.65
2023-01-21T13:22:42.939Z,88.61
2023-01-21T13:25:37.819Z,88.50
2023-01-21T13:28:30.799Z,88.38
2023-01-21T13:31:19.729Z,88.34
2023-01-21T13:33:52.939Z,88.35
2023-01-21T13:36:58.896Z,88.34
2023-01-21T13:39:50.742Z,88.28
2023-01-21T13:42:20.729Z,88.38
2023-01-21T13:44:52.363Z,88.61
2023-01-21T13:48:07.893Z,88.43
2023-01-21T13:50:53.844Z,88.85
2023-01-21T13:53:58.808Z,88.75
2023-01-21T13:56:33.226Z,88.69
2023-01-21T13:59:02.040Z,88.47
2023-01-21T14:01:35.623Z,88.43
2023-01-21T14:04:10.021Z,88.35
2023-01-21T14:06:46.096Z,88.53
2023-01-21T14:09:25.595Z,88.60
2023-01-21T14:12:02.125Z,88.59
2023-01-21T14:14:45.737Z,88.63
2023-01-21T14:17:31.422Z,88.54
2023-01-21T14:19:58.273Z,88.43
2023-01-21T14:22:28.180Z,88.52
2023-01-21T14:25:19.468Z,88.63
2023-01-21T14:28:48.294Z,88.60
2023-01-21T14:31:21.440Z,88.58
2023-01-21T14:33:58.053Z,88.59
2023-01-21T14:37:16.612Z,88.60
2023-01-21T14:40:06.780Z,88.65
2023-01-21T14:42:49.264Z,88.67
2023-01-21T14:45:20.535Z,88.96
2023-01-21T14:47:52.363Z,88.78
2023-01-21T14:50:43.185Z,89.13
2023-01-21T14:53:28.096Z,89.07
2023-01-21T14:56:28.925Z,89.23
2023-01-21T14:59:04.265Z,89.07
2023-01-21T15:01:42.133Z,89.15
2023-01-21T15:04:25.750Z,89.30
2023-01-21T15:06:55.156Z,89.09
2023-01-21T15:09:26.040Z,89.37
2023-01-21T15:11:57.095Z,89.30
2023-01-21T15:14:45.708Z,89.32
2023-01-21T15:17:44.916Z,89.44
2023-01-21T15:20:43.112Z,89.56
2023-01-21T15:23:29.000Z,89.67
2023-01-21T15:26:11.240Z,89.61
2023-01-21T15:28:53.665Z,89.56
2023-01-21T15:31:20.453Z,89.77
2023-01-21T15:33:58.786Z,89.97
2023-01-21T15:36:31.880Z,89.89
2023-01-21T15:39:02.355Z,89.60
2023-01-21T15:41:39.086Z,89.43
2023-01-21T15:44:34.305Z,89.34
2023-01-21T15:47:27.116Z,88.91
2023-01-21T15:50:13.003Z,88.73
2023-01-21T15:52:49.033Z,89.18
2023-01-21T15:55:44.609Z,88.99
2023-01-21T15:58:35.179Z,89.01
2023-01-21T16:01:10.655Z,89.19
2023-01-21T16:03:47.566Z,89.25
2023-01-21T16:07:02.163Z,89.31
2023-01-21T18:20:04.833Z,93.89
2023-01-21T18:22:31.649Z,93.75
2023-01-21T18:25:00.770Z,93.29
2023-01-21T18:27:27.512Z,93.33
2023-01-21T18:29:54.255Z,92.97
2023-01-21T18:32:21.296Z,92.45
2023-01-21T18:34:49.679Z,92.09
2023-01-21T18:37:17.433Z,92.40
2023-01-21T18:39:44.383Z,92.11
2023-01-21T18:42:15.526Z,92.10
2023-01-21T18:44:42.351Z,91.98
2023-01-21T18:47:11.112Z,92.00
2023-01-21T18:49:38.007Z,92.09
2023-01-21T18:52:04.948Z,91.58
2023-01-21T18:54:32.403Z,91.19
2023-01-21T18:56:59.246Z,90.98
2023-01-21T18:59:26.515Z,91.13
2023-01-21T19:01:53.470Z,91.09
2023-01-21T19:04:20.770Z,91.06
2023-01-21T19:06:49.798Z,91.17
2023-01-21T19:09:22.506Z,91.26
2023-01-21T19:11:49.307Z,90.90
2023-01-21T19:14:15.920Z,90.77
2023-01-21T19:16:43.266Z,90.67
2023-01-21T19:19:15.440Z,90.58
2023-01-21T19:21:42.840Z,90.80
2023-01-21T19:24:11.897Z,90.90
2023-01-21T19:26:39.489Z,90.92
2023-01-21T19:29:07.307Z,91.17
2023-01-21T19:31:34.515Z,91.26
2023-01-21T19:34:01.288Z,91.20
2023-01-21T19:36:29.412Z,91.21
2023-01-21T19:38:57.791Z,91.22
2023-01-21T19:41:24.731Z,91.34
2023-01-21T19:43:51.572Z,91.48
2023-01-21T19:46:18.705Z,91.44
2023-01-21T19:48:49.824Z,91.76
2023-01-21T19:51:16.431Z,91.91
2023-01-21T19:53:44.812Z,91.84
2023-01-21T19:56:14.040Z,91.90
2023-01-21T19:58:41.554Z,91.94
2023-01-21T20:01:09.625Z,92.06
2023-01-21T20:03:36.663Z,91.77
2023-01-21T20:06:03.684Z,91.84
2023-01-21T20:08:31.367Z,91.79
2023-01-21T20:10:58.000Z,91.69
2023-01-21T20:13:25.667Z,91.73
2023-01-21T20:15:52.422Z,91.70
2023-01-21T20:18:26.429Z,91.81
2023-01-21T20:20:53.277Z,91.69
2023-01-21T20:23:21.537Z,91.83
2023-01-21T20:25:49.833Z,91.75
2023-01-21T20:28:17.230Z,91.63
2023-01-21T20:30:44.433Z,91.54
2023-01-21T20:33:12.074Z,91.34
2023-01-21T20:35:39.308Z,91.15
2023-01-21T20:38:06.275Z,90.94
2023-01-21T20:40:35.389Z,91.17
2023-01-21T20:43:02.827Z,91.19
2023-01-21T20:45:32.660Z,91.52
2023-01-21T20:48:02.185Z,91.53
2023-01-21T20:50:33.048Z,91.48
2023-01-21T20:52:59.833Z,91.38
2023-01-21T20:55:27.929Z,91.09
2023-01-21T20:57:55.660Z,90.80
2023-01-21T21:00:23.177Z,90.83
2023-01-21T21:02:49.869Z,90.77
2023-01-21T21:05:17.402Z,90.48
2023-01-21T21:07:44.722Z,90.60
2023-01-21T21:10:24.628Z,90.88
2023-01-21T21:12:51.733Z,91.02
2023-01-21T21:15:19.896Z,91.13
2023-01-21T21:17:47.240Z,91.10
2023-01-21T21:20:19.569Z,91.01
2023-01-21T21:22:47.634Z,91.14
2023-01-21T21:25:18.257Z,91.29
2023-01-21T21:27:45.264Z,91.49
2023-01-21T21:30:13.339Z,91.34
2023-01-21T21:32:41.271Z,91.46
2023-01-21T21:35:23.148Z,91.67
2023-01-21T21:37:50.762Z,91.92
2023-01-21T21:40:18.744Z,91.80
2023-01-21T21:43:04.579Z,91.85
2023-01-21T21:45:31.519Z,91.56
2023-01-21T21:48:17.073Z,91.66
2023-01-21T21:50:44.034Z,91.74
2023-01-21T21:53:10.880Z,91.87
2023-01-21T21:55:37.514Z,92.04
2023-01-21T21:58:05.360Z,92.18
2023-01-21T22:00:31.971Z,92.17
2023-01-21T22:03:01.861Z,92.57
2023-01-21T22:05:29.719Z,92.50
2023-01-21T22:07:56.335Z,92.57
2023-01-21T22:10:23.165Z,92.53
2023-01-21T22:12:50.236Z,92.56
2023-01-21T22:15:17.125Z,92.52
2023-01-21T22:17:44.219Z,92.34
2023-01-21T22:20:11.853Z,91.98
2023-01-21T22:22:39.366Z,91.86
2023-01-21T22:25:06.997Z,91.50
2023-01-21T22:27:33.739Z,91.57
2023-01-21T22:30:01.576Z,91.72
2023-01-21T22:32:28.528Z,91.81
2023-01-21T22:34:55.390Z,91.72
2023-01-21T22:37:22.856Z,91.55
2023-01-21T22:39:49.725Z,91.64
2023-01-21T22:42:16.348Z,91.86
2023-01-21T22:44:42.916Z,91.73
2023-01-21T22:47:09.872Z,91.60
2023-01-21T22:49:36.960Z,91.60
2023-01-21T22:52:03.759Z,91.55
2023-01-21T22:54:30.744Z,91.55
2023-01-21T22:56:57.593Z,91.98
2023-01-21T22:59:24.157Z,91.76
2023-01-21T23:01:50.871Z,91.95
2023-01-21T23:04:18.126Z,91.69
2023-01-21T23:06:47.044Z,91.28
2023-01-21T23:09:15.080Z,90.97
2023-01-21T23:11:44.177Z,91.10
2023-01-21T23:14:10.809Z,91.03
2023-01-21T23:16:37.667Z,91.22
2023-01-21T23:19:04.465Z,90.96
2023-01-21T23:21:31.545Z,91.13
2023-01-21T23:23:58.452Z,90.67
2023-01-21T23:26:25.155Z,90.89
2023-01-21T23:28:55.486Z,90.71
2023-01-21T23:31:22.539Z,90.71
2023-01-21T23:33:50.465Z,90.91
2023-01-21T23:36:17.417Z,90.68
2023-01-21T23:38:44.912Z,90.78
2023-01-21T23:41:13.044Z,91.01
2023-01-21T23:43:39.598Z,91.07
2023-01-21T23:46:08.271Z,91.56
2023-01-21T23:48:35.522Z,91.41
2023-01-21T23:51:03.431Z,91.34
2023-01-21T23:53:30.850Z,91.30
2023-01-21T23:56:13.875Z,91.07
2023-01-21T23:58:40.620Z,91.12
